createdAt,value
2023-04-09T00:00:28.436Z,6.82
2023-04-09T00:02:01.594Z,6.30
2023-04-09T00:03:35.352Z,5.95
2023-04-09T00:05:09.199Z,5.78
2023-04-09T00:06:43.509Z,6.18
2023-04-09T00:08:16.511Z,6.32
2023-04-09T00:09:48.431Z,5.55
2023-04-09T00:11:21.877Z,6.32
2023-04-09T00:12:54.809Z,6.25
2023-04-09T00:14:27.820Z,6.03
2023-04-09T00:16:02.076Z,5.55
2023-04-09T00:17:34.196Z,6.20
2023-04-09T00:19:07.656Z,6.35
2023-04-09T00:20:40.805Z,5.38
2023-04-09T00:22:14.952Z,5.97
2023-04-09T00:23:47.919Z,6.20
2023-04-09T00:25:21.065Z,6.28
2023-04-09T00:26:53.547Z,6.40
2023-04-09T00:28:26.612Z,6.63
2023-04-09T00:29:59.575Z,5.90
2023-04-09T00:31:33.013Z,6.55
2023-04-09T00:33:06.039Z,6.57
2023-04-09T00:34:39.250Z,6.00
2023-04-09T00:36:12.334Z,6.40
2023-04-09T00:37:46.847Z,6.55
2023-04-09T00:39:19.772Z,6.32
2023-04-09T00:40:51.939Z,5.75
2023-04-09T00:42:24.827Z,6.50
2023-04-09T00:43:58.075Z,5.60
2023-04-09T00:45:31.052Z,6.03
2023-04-09T00:47:03.715Z,5.97
2023-04-09T00:48:36.852Z,6.10
2023-04-09T00:50:10.985Z,6.20
2023-04-09T00:51:44.084Z,6.55
2023-04-09T00:53:19.011Z,5.75
2023-04-09T00:54:52.906Z,6.60
2023-04-09T00:56:26.482Z,5.55
2023-04-09T00:57:59.391Z,6.20
2023-04-09T00:59:33.524Z,6.07
2023-04-09T01:01:06.547Z,5.90
2023-04-09T01:02:40.150Z,5.63
2023-04-09T01:04:12.316Z,5.63
2023-04-09T01:05:55.428Z,6.13
2023-04-09T01:07:40.690Z,6.55
2023-04-09T01:09:22.948Z,6.20
2023-04-09T01:11:00.449Z,6.13
2023-04-09T01:12:37.732Z,6.25
2023-04-09T01:14:25.420Z,5.68
2023-04-09T01:16:01.448Z,6.72
2023-04-09T01:17:39.187Z,6.00
2023-04-09T01:19:26.250Z,6.03
2023-04-09T01:21:03.981Z,6.00
2023-04-09T01:22:49.967Z,5.75
2023-04-09T01:24:41.126Z,5.85
2023-04-09T01:26:28.701Z,5.97
2023-04-09T01:28:16.551Z,5.55
2023-04-09T01:29:54.464Z,5.85
2023-04-09T01:31:32.036Z,5.65
2023-04-09T01:33:06.575Z,5.65
2023-04-09T01:34:39.924Z,6.03
2023-04-09T01:36:13.439Z,6.00
2023-04-09T01:37:46.516Z,6.30
2023-04-09T01:39:20.000Z,6.22
2023-04-09T01:40:53.833Z,5.70
2023-04-09T01:42:27.371Z,5.93
2023-04-09T01:44:04.028Z,5.90
2023-04-09T01:45:37.334Z,5.97
2023-04-09T01:47:11.136Z,6.03
2023-04-09T01:48:44.567Z,6.10
2023-04-09T01:51:51.168Z,5.75
2023-04-09T01:53:24.368Z,5.95
2023-04-09T01:54:57.784Z,5.47
2023-04-09T01:58:14.888Z,5.90
2023-04-09T01:59:49.275Z,6.20
2023-04-09T02:01:27.134Z,6.30
2023-04-09T02:03:05.506Z,6.00
2023-04-09T02:04:41.612Z,5.80
2023-04-09T02:06:17.260Z,6.28
2023-04-09T02:07:56.574Z,6.22
2023-04-09T02:09:32.131Z,6.43
2023-04-09T02:11:10.946Z,6.88
2023-04-09T02:12:49.341Z,7.40
2023-04-09T02:14:23.734Z,6.90
2023-04-09T02:15:58.919Z,6.68
2023-04-09T02:17:31.049Z,7.10
2023-04-09T02:19:04.078Z,7.05
2023-04-09T02:20:37.093Z,7.15
2023-04-09T02:22:10.706Z,6.53
2023-04-09T02:23:43.654Z,6.97
2023-04-09T02:25:16.884Z,6.70
2023-04-09T02:26:49.830Z,6.53
2023-04-09T02:28:22.842Z,6.45
2023-04-09T02:29:55.842Z,6.55
2023-04-09T02:31:30.415Z,6.32
2023-04-09T02:33:03.619Z,6.53
2023-04-09T02:34:36.624Z,6.82
2023-04-09T02:36:12.624Z,6.47
2023-04-09T02:37:45.972Z,5.93
2023-04-09T02:40:51.007Z,6.53
2023-04-09T02:42:23.931Z,6.60
2023-04-09T02:43:57.096Z,6.43
2023-04-09T02:45:30.079Z,6.82
2023-04-09T02:47:04.437Z,6.93
2023-04-09T02:48:37.429Z,7.25
2023-04-09T02:50:10.664Z,6.55
2023-04-09T02:51:43.593Z,7.10
2023-04-09T02:53:16.556Z,7.10
2023-04-09T02:54:49.521Z,7.10
2023-04-09T02:56:22.513Z,6.57
2023-04-09T02:57:55.652Z,7.28
2023-04-09T02:59:28.548Z,7.18
2023-04-09T03:01:01.567Z,7.55
2023-04-09T03:02:36.139Z,6.90
2023-04-09T03:04:09.310Z,7.22
2023-04-09T03:05:42.312Z,7.35
2023-04-09T03:07:15.278Z,6.57
2023-04-09T03:08:48.239Z,6.60
2023-04-09T03:10:21.262Z,6.95
2023-04-09T03:11:54.440Z,7.32
2023-04-09T03:13:28.992Z,6.47
2023-04-09T03:15:02.047Z,7.25
2023-04-09T03:16:35.026Z,7.07
2023-04-09T03:18:09.500Z,7.68
2023-04-09T03:19:42.506Z,7.28
2023-04-09T03:21:16.219Z,7.55
2023-04-09T03:22:49.190Z,7.63
2023-04-09T03:24:22.157Z,7.75
2023-04-09T03:26:02.392Z,7.75
2023-04-09T03:27:35.380Z,7.43
2023-04-09T03:29:08.772Z,8.00
2023-04-09T03:32:13.450Z,7.60
2023-04-09T03:33:47.708Z,8.05
2023-04-09T03:35:20.730Z,8.68
2023-04-09T03:36:53.819Z,8.05
2023-04-09T03:38:26.933Z,7.68
2023-04-09T03:40:00.003Z,7.93
2023-04-09T03:41:33.007Z,7.68
2023-04-09T03:43:05.937Z,7.65
2023-04-09T03:44:38.971Z,7.80
2023-04-09T03:46:15.202Z,7.45
2023-04-09T03:47:48.213Z,7.13
2023-04-09T03:49:22.680Z,7.22
2023-04-09T03:50:55.790Z,7.97
2023-04-09T03:52:28.964Z,7.57
2023-04-09T03:54:00.955Z,7.47
2023-04-09T03:55:33.916Z,7.10
2023-04-09T03:57:06.935Z,7.13
2023-04-09T03:58:40.103Z,7.63
2023-04-09T04:00:12.596Z,7.72
2023-04-09T04:01:45.635Z,7.30
2023-04-09T04:03:18.885Z,7.90
2023-04-09T04:06:27.271Z,7.35
2023-04-09T04:07:59.229Z,7.63
2023-04-09T04:09:32.206Z,7.20
2023-04-09T04:11:05.946Z,7.63
2023-04-09T04:12:38.848Z,6.97
2023-04-09T04:14:11.896Z,7.03
2023-04-09T04:15:44.815Z,8.18
2023-04-09T04:17:16.883Z,7.13
2023-04-09T04:18:50.177Z,8.35
2023-04-09T04:20:23.728Z,8.05
2023-04-09T04:21:56.678Z,7.53
2023-04-09T04:23:29.754Z,7.35
2023-04-09T04:25:02.983Z,7.25
2023-04-09T04:26:35.860Z,7.55
2023-04-09T04:28:08.033Z,7.45
2023-04-09T04:29:40.943Z,7.50
2023-04-09T04:31:14.243Z,7.65
2023-04-09T04:34:20.098Z,7.68
2023-04-09T04:35:54.451Z,7.80
2023-04-09T04:37:27.643Z,8.07
2023-04-09T04:39:00.599Z,8.90
2023-04-09T04:40:33.636Z,7.82
2023-04-09T04:42:06.628Z,7.60
2023-04-09T04:43:41.439Z,7.85
2023-04-09T04:45:14.408Z,7.13
2023-04-09T04:46:47.340Z,7.90
2023-04-09T04:48:20.286Z,7.60
2023-04-09T04:49:53.637Z,7.22
2023-04-09T04:51:28.022Z,8.27
2023-04-09T04:53:00.946Z,8.05
2023-04-09T04:54:34.815Z,7.90
2023-04-09T04:56:08.107Z,8.13
2023-04-09T04:57:41.036Z,8.15
2023-04-09T04:59:13.951Z,7.93
2023-04-09T05:00:47.240Z,7.38
2023-04-09T05:03:53.614Z,7.47
2023-04-09T05:07:01.193Z,7.30
2023-04-09T05:08:34.103Z,7.07
2023-04-09T05:10:08.604Z,7.32
2023-04-09T05:11:41.540Z,7.28
2023-04-09T05:13:14.519Z,7.78
2023-04-09T05:14:48.481Z,7.55
2023-04-09T05:16:22.081Z,7.72
2023-04-09T05:17:55.274Z,7.82
2023-04-09T05:19:28.290Z,8.32
2023-04-09T05:21:01.211Z,7.93
2023-04-09T05:22:36.217Z,8.55
2023-04-09T05:24:09.262Z,8.20
2023-04-09T05:25:42.240Z,8.88
2023-04-09T05:27:15.447Z,8.15
2023-04-09T05:28:48.445Z,8.10
2023-04-09T05:30:21.592Z,8.40
2023-04-09T05:31:54.560Z,7.95
2023-04-09T05:33:27.504Z,7.63
2023-04-09T05:35:00.504Z,7.40
2023-04-09T05:36:33.456Z,7.82
2023-04-09T05:38:07.774Z,7.97
2023-04-09T05:39:40.816Z,7.97
2023-04-09T05:41:14.045Z,8.30
2023-04-09T05:42:46.966Z,8.32
2023-04-09T05:44:18.964Z,8.63
2023-04-09T05:45:51.917Z,8.30
2023-04-09T05:47:25.007Z,8.60
2023-04-09T05:48:57.955Z,8.23
2023-04-09T05:50:31.844Z,10.38
2023-04-09T05:52:07.489Z,9.00
2023-04-09T05:53:42.774Z,8.63
2023-04-09T05:55:15.899Z,6.95
2023-04-09T05:56:49.172Z,8.30
2023-04-09T05:58:22.103Z,8.95
2023-04-09T05:59:54.996Z,9.43
2023-04-09T06:01:28.036Z,9.07
2023-04-09T06:03:01.139Z,8.25
2023-04-09T06:04:34.154Z,8.10
2023-04-09T06:06:07.340Z,7.75
2023-04-09T06:07:40.725Z,8.00
2023-04-09T06:10:47.858Z,7.10
2023-04-09T06:12:20.846Z,8.40
2023-04-09T06:13:53.888Z,8.18
2023-04-09T06:15:26.973Z,7.70
2023-04-09T06:17:00.272Z,8.75
2023-04-09T06:18:33.211Z,8.38
2023-04-09T06:20:07.181Z,8.38
2023-04-09T06:21:40.711Z,8.60
2023-04-09T06:23:13.659Z,8.30
2023-04-09T06:24:47.987Z,8.40
2023-04-09T06:26:21.131Z,8.40
2023-04-09T06:27:54.092Z,8.73
2023-04-09T06:29:27.222Z,8.07
2023-04-09T06:31:00.941Z,8.13
2023-04-09T06:32:40.608Z,8.55
2023-04-09T06:34:24.246Z,8.13
2023-04-09T06:35:57.224Z,9.00
2023-04-09T06:37:30.283Z,8.60
2023-04-09T06:39:03.540Z,9.52
2023-04-09T06:40:39.591Z,8.88
2023-04-09T06:42:12.518Z,9.38
2023-04-09T06:43:45.625Z,9.55
2023-04-09T06:45:18.657Z,9.82
2023-04-09T06:46:51.828Z,9.40
2023-04-09T06:48:24.790Z,11.07
2023-04-09T06:49:57.794Z,10.25
2023-04-09T06:51:30.718Z,9.90
2023-04-09T06:53:03.723Z,9.95
2023-04-09T06:54:36.869Z,10.50
2023-04-09T06:56:11.233Z,10.15
2023-04-09T06:57:44.156Z,9.98
2023-04-09T06:59:17.359Z,10.27
2023-04-09T07:00:50.326Z,10.15
2023-04-09T07:02:23.483Z,10.20
2023-04-09T07:03:56.870Z,9.52
2023-04-09T07:05:30.654Z,9.20
2023-04-09T07:07:03.659Z,9.95
2023-04-09T07:08:36.581Z,9.65
2023-04-09T07:10:10.270Z,10.10
2023-04-09T07:11:44.660Z,9.30
2023-04-09T07:13:17.891Z,9.75
2023-04-09T07:14:50.810Z,10.55
2023-04-09T07:16:23.830Z,10.55
2023-04-09T07:17:57.735Z,10.40
2023-04-09T07:19:30.966Z,10.73
2023-04-09T07:21:04.421Z,10.77
2023-04-09T07:22:37.455Z,10.65
2023-04-09T07:24:10.456Z,10.52
2023-04-09T07:25:43.546Z,10.20
2023-04-09T07:27:17.854Z,10.57
2023-04-09T07:28:50.802Z,9.30
2023-04-09T07:30:23.965Z,9.77
2023-04-09T07:31:56.958Z,10.48
2023-04-09T07:33:30.473Z,9.88
2023-04-09T07:36:38.685Z,9.73
2023-04-09T07:38:11.623Z,10.07
2023-04-09T07:39:44.802Z,10.57
2023-04-09T07:41:17.882Z,10.63
2023-04-09T07:42:53.276Z,10.68
2023-04-09T07:44:26.242Z,10.32
2023-04-09T07:45:59.210Z,10.10
2023-04-09T07:47:32.550Z,9.70
2023-04-09T07:50:38.934Z,9.65
2023-04-09T07:52:12.067Z,9.98
2023-04-09T07:53:45.178Z,9.45
2023-04-09T07:55:18.938Z,9.57
2023-04-09T07:56:52.081Z,9.98
2023-04-09T07:58:26.341Z,9.88
2023-04-09T07:59:59.241Z,10.68
2023-04-09T08:01:32.199Z,9.95
2023-04-09T08:03:05.781Z,10.00
2023-04-09T08:04:39.106Z,9.50
2023-04-09T08:06:12.148Z,9.07
2023-04-09T08:07:45.156Z,9.35
2023-04-09T08:09:18.530Z,9.45
2023-04-09T08:12:24.419Z,9.13
2023-04-09T08:14:01.423Z,9.30
2023-04-09T08:15:34.352Z,8.55
2023-04-09T08:17:07.286Z,9.00
2023-04-09T08:18:40.221Z,9.40
2023-04-09T08:20:13.828Z,9.10
2023-04-09T08:21:48.808Z,9.10
2023-04-09T08:23:21.810Z,9.63
2023-04-09T08:24:54.861Z,8.57
2023-04-09T08:26:27.887Z,10.15
2023-04-09T08:28:00.906Z,9.07
2023-04-09T08:29:35.362Z,9.88
2023-04-09T08:31:09.885Z,9.25
2023-04-09T08:32:44.446Z,9.73
2023-04-09T08:34:20.980Z,10.25
2023-04-09T08:35:53.948Z,9.98
2023-04-09T08:37:26.926Z,9.68
2023-04-09T08:39:00.570Z,10.02
2023-04-09T08:40:35.824Z,9.80
2023-04-09T08:42:12.543Z,9.60
2023-04-09T08:45:27.294Z,9.70
2023-04-09T08:47:01.314Z,9.60
2023-04-09T08:48:34.373Z,8.77
2023-04-09T08:50:08.106Z,9.48
2023-04-09T08:51:41.334Z,9.35
2023-04-09T08:53:16.598Z,9.07
2023-04-09T08:54:50.586Z,9.05
2023-04-09T08:56:23.888Z,9.18
2023-04-09T08:59:29.645Z,8.63
2023-04-09T09:01:03.987Z,9.43
2023-04-09T09:02:37.144Z,8.15
2023-04-09T09:04:11.503Z,8.70
2023-04-09T09:05:45.935Z,8.80
2023-04-09T09:07:18.919Z,8.90
2023-04-09T09:09:10.240Z,8.65
2023-04-09T09:10:44.995Z,8.93
2023-04-09T09:12:38.202Z,9.30
2023-04-09T09:14:13.449Z,9.15
2023-04-09T09:15:47.799Z,8.80
2023-04-09T09:17:22.113Z,9.13
2023-04-09T09:18:56.869Z,9.13
2023-04-09T09:20:30.070Z,8.20
2023-04-09T09:22:05.229Z,8.18
2023-04-09T09:23:38.411Z,9.20
2023-04-09T09:25:14.383Z,9.27
2023-04-09T09:26:47.341Z,9.43
2023-04-09T09:28:20.821Z,8.93
2023-04-09T09:29:53.726Z,9.18
2023-04-09T09:31:27.405Z,8.73
2023-04-09T09:33:08.458Z,8.48
2023-04-09T09:34:41.515Z,8.90
2023-04-09T09:36:14.754Z,8.65
2023-04-09T09:39:21.877Z,7.80
2023-04-09T09:40:54.813Z,7.95
2023-04-09T09:42:27.910Z,8.32
2023-04-09T09:44:00.834Z,8.93
2023-04-09T09:45:34.159Z,8.10
2023-04-09T09:48:43.059Z,8.07
2023-04-09T09:50:16.059Z,7.85
2023-04-09T09:51:49.182Z,8.88
2023-04-09T09:53:27.256Z,7.82
2023-04-09T09:55:05.294Z,7.90
2023-04-09T09:56:42.082Z,8.93
2023-04-09T09:58:18.853Z,8.32
2023-04-09T09:59:55.490Z,8.18
2023-04-09T10:01:29.230Z,7.22
2023-04-09T10:03:11.624Z,7.40
2023-04-09T10:04:46.743Z,7.90
2023-04-09T10:06:20.316Z,7.90
2023-04-09T10:07:54.384Z,8.20
2023-04-09T10:09:28.850Z,8.15
2023-04-09T10:11:02.651Z,7.45
2023-04-09T10:12:36.446Z,7.70
2023-04-09T10:14:10.634Z,7.90
2023-04-09T10:15:45.168Z,7.53
2023-04-09T10:17:18.753Z,7.88
2023-04-09T10:18:52.429Z,7.57
2023-04-09T10:20:33.566Z,8.15
2023-04-09T10:22:11.496Z,7.70
2023-04-09T10:23:51.063Z,7.32
2023-04-09T10:25:34.302Z,7.07
2023-04-09T10:27:16.156Z,7.53
2023-04-09T10:29:05.900Z,7.07
2023-04-09T10:30:38.875Z,7.45
2023-04-09T10:32:12.720Z,7.03
2023-04-09T10:33:46.030Z,5.90
2023-04-09T10:37:00.714Z,5.93
2023-04-09T10:38:38.811Z,6.30
2023-04-09T10:40:20.541Z,5.60
2023-04-09T10:41:55.590Z,5.40
2023-04-09T10:43:31.586Z,5.55
2023-04-09T10:45:09.393Z,6.10
2023-04-09T10:46:43.042Z,6.15
2023-04-09T10:48:16.207Z,6.75
2023-04-09T10:49:50.769Z,6.70
2023-04-09T10:51:24.079Z,5.63
2023-04-09T10:54:47.145Z,5.88
2023-04-09T10:56:20.442Z,5.88
2023-04-09T10:59:25.366Z,5.80
2023-04-09T11:01:02.765Z,5.63
2023-04-09T11:03:07.931Z,5.32
2023-04-09T11:04:50.345Z,5.20
2023-04-09T11:06:24.508Z,5.47
2023-04-09T11:08:04.293Z,5.55
2023-04-09T11:09:37.263Z,5.22
2023-04-09T11:11:13.266Z,5.45
2023-04-09T11:12:48.074Z,5.00
2023-04-09T11:14:21.650Z,5.00
2023-04-09T11:15:56.404Z,5.10
2023-04-09T11:17:29.635Z,5.13
2023-04-09T11:20:36.398Z,4.97
2023-04-09T11:22:09.366Z,4.60
2023-04-09T11:23:43.943Z,5.00
2023-04-09T11:25:21.345Z,4.43
2023-04-09T11:26:56.906Z,4.95
2023-04-09T11:28:29.834Z,4.50
2023-04-09T11:30:01.850Z,4.45
2023-04-09T11:31:34.958Z,5.10
2023-04-09T11:33:08.668Z,4.82
2023-04-09T11:34:40.888Z,4.45
2023-04-09T11:36:13.896Z,5.25
2023-04-09T11:37:47.558Z,5.03
2023-04-09T11:39:21.991Z,4.80
2023-04-09T11:40:59.041Z,5.20
2023-04-09T11:42:31.969Z,5.03
2023-04-09T11:44:05.168Z,4.80
2023-04-09T11:45:38.577Z,5.38
2023-04-09T11:47:11.895Z,5.10
2023-04-09T11:50:17.754Z,4.95
2023-04-09T11:51:50.982Z,5.50
2023-04-09T11:55:02.554Z,5.47
2023-04-09T11:56:37.527Z,4.60
2023-04-09T11:58:13.407Z,5.18
2023-04-09T11:59:46.412Z,4.85
2023-04-09T12:01:19.410Z,5.05
2023-04-09T12:03:00.427Z,4.75
2023-04-09T12:04:33.607Z,4.85
2023-04-09T12:06:07.856Z,4.68
2023-04-09T12:07:44.213Z,4.90
2023-04-09T12:09:24.891Z,4.80
2023-04-09T12:11:08.478Z,4.70
2023-04-09T12:12:42.629Z,4.93
2023-04-09T12:14:17.226Z,4.97
2023-04-09T12:15:51.443Z,4.72
2023-04-09T12:17:24.507Z,4.78
2023-04-09T12:18:57.456Z,5.63
2023-04-09T12:20:32.073Z,5.18
2023-04-09T12:22:04.969Z,5.20
2023-04-09T12:23:37.955Z,4.97
2023-04-09T12:25:11.424Z,5.03
2023-04-09T12:26:46.261Z,4.65
2023-04-09T12:28:19.243Z,4.43
2023-04-09T12:29:52.207Z,4.32
2023-04-09T12:31:25.186Z,4.03
2023-04-09T12:32:58.217Z,4.68
2023-04-09T12:34:31.580Z,5.15
2023-04-09T12:36:04.781Z,5.05
2023-04-09T12:39:10.968Z,4.75
2023-04-09T12:40:43.950Z,4.93
2023-04-09T12:42:18.253Z,5.00
2023-04-09T12:43:51.775Z,4.35
2023-04-09T12:45:24.922Z,4.80
2023-04-09T12:46:57.896Z,4.47
2023-04-09T12:48:30.780Z,4.65
2023-04-09T12:50:03.772Z,4.90
2023-04-09T12:51:36.688Z,4.82
2023-04-09T12:53:09.608Z,4.97
2023-04-09T12:54:42.552Z,4.88
2023-04-09T12:56:15.485Z,5.05
2023-04-09T12:57:51.841Z,4.82
2023-04-09T12:59:24.959Z,4.70
2023-04-09T13:00:57.971Z,4.70
2023-04-09T13:02:31.816Z,4.80
2023-04-09T13:04:04.867Z,5.00
2023-04-09T13:05:37.856Z,5.00
2023-04-09T13:07:11.999Z,4.80
2023-04-09T13:08:44.925Z,5.53
2023-04-09T13:10:18.063Z,4.90
2023-04-09T13:11:49.944Z,4.97
2023-04-09T13:13:25.025Z,5.13
2023-04-09T13:14:59.145Z,5.22
2023-04-09T13:16:32.837Z,5.25
2023-04-09T13:18:05.855Z,5.35
2023-04-09T13:19:39.886Z,5.57
2023-04-09T13:21:18.626Z,5.05
2023-04-09T13:22:52.345Z,4.93
2023-04-09T13:24:25.873Z,5.10
2023-04-09T13:25:59.674Z,5.20
2023-04-09T13:27:32.753Z,4.90
2023-04-09T13:29:08.162Z,4.95
2023-04-09T13:30:41.417Z,5.40
2023-04-09T13:33:47.307Z,4.68
2023-04-09T13:35:20.362Z,4.70
2023-04-09T13:36:53.416Z,5.28
2023-04-09T13:38:26.650Z,5.53
2023-04-09T13:41:33.915Z,5.13
2023-04-09T13:43:06.951Z,4.82
2023-04-09T13:44:42.532Z,5.25
2023-04-09T13:46:15.643Z,5.03
2023-04-09T13:47:49.393Z,5.07
2023-04-09T13:49:22.445Z,4.53
2023-04-09T13:50:55.450Z,4.75
2023-04-09T13:52:29.791Z,5.22
2023-04-09T13:54:05.774Z,4.95
2023-04-09T13:55:40.761Z,4.70
2023-04-09T13:57:13.742Z,4.90
2023-04-09T13:58:46.882Z,4.55
2023-04-09T14:00:21.379Z,4.53
2023-04-09T14:01:54.571Z,5.20
2023-04-09T14:05:00.768Z,4.70
2023-04-09T14:08:06.600Z,4.70
2023-04-09T14:09:39.501Z,4.75
2023-04-09T14:11:15.178Z,5.10
2023-04-09T14:12:48.147Z,5.30
2023-04-09T14:14:21.254Z,5.60
2023-04-09T14:15:55.737Z,5.60
2023-04-09T14:17:29.435Z,5.50
2023-04-09T14:19:02.398Z,5.75
2023-04-09T14:20:36.257Z,5.65
2023-04-09T14:22:10.279Z,5.13
2023-04-09T14:23:43.257Z,5.47
2023-04-09T14:25:16.318Z,6.45
2023-04-09T14:26:49.325Z,5.72
2023-04-09T14:28:22.294Z,5.47
2023-04-09T14:29:55.245Z,5.63
2023-04-09T14:31:29.605Z,5.10
2023-04-09T14:33:02.920Z,5.53
2023-04-09T14:36:09.136Z,5.00
2023-04-09T14:37:42.132Z,5.22
2023-04-09T14:39:15.644Z,5.03
2023-04-09T14:40:48.643Z,5.40
2023-04-09T14:42:22.247Z,5.43
2023-04-09T14:43:55.228Z,5.15
2023-04-09T14:45:30.395Z,5.03
2023-04-09T14:47:04.974Z,5.07
2023-04-09T14:48:38.031Z,5.00
2023-04-09T14:50:12.829Z,5.10
2023-04-09T14:51:45.818Z,5.10
2023-04-09T14:53:18.916Z,4.97
2023-04-09T14:54:51.774Z,5.28
2023-04-09T14:56:25.127Z,4.80
2023-04-09T14:59:30.814Z,4.85
2023-04-09T15:01:04.234Z,5.30
2023-04-09T15:02:39.596Z,5.40
2023-04-09T15:04:12.757Z,5.07
2023-04-09T15:05:46.121Z,4.82
2023-04-09T15:08:52.127Z,4.70
2023-04-09T15:10:25.263Z,4.88
2023-04-09T15:11:58.222Z,4.65
2023-04-09T15:13:31.284Z,4.78
2023-04-09T15:15:07.246Z,5.00
2023-04-09T15:16:40.334Z,4.80
2023-04-09T15:18:14.641Z,4.80
2023-04-09T15:19:47.930Z,4.88
2023-04-09T15:22:53.691Z,4.80
2023-04-09T15:24:26.688Z,5.22
2023-04-09T15:25:59.739Z,4.63
2023-04-09T15:27:32.724Z,4.38
2023-04-09T15:29:08.460Z,5.30
2023-04-09T15:30:41.864Z,4.65
2023-04-09T15:32:14.835Z,4.85
2023-04-09T15:33:50.404Z,4.90
2023-04-09T15:35:26.568Z,4.30
2023-04-09T15:36:59.580Z,4.68
2023-04-09T15:38:32.474Z,4.80
2023-04-09T15:40:05.836Z,4.78
2023-04-09T15:41:39.053Z,4.30
2023-04-09T15:43:12.004Z,5.13
2023-04-09T15:44:44.895Z,5.00
2023-04-09T15:46:18.307Z,4.65
2023-04-09T15:47:51.390Z,4.90
2023-04-09T15:49:25.728Z,4.40
2023-04-09T15:50:58.673Z,4.13
2023-04-09T15:52:31.586Z,4.88
2023-04-09T15:54:04.651Z,4.97
2023-04-09T15:55:37.612Z,4.70
2023-04-09T15:57:10.488Z,5.07
2023-04-09T15:58:43.629Z,4.80
2023-04-09T16:00:16.781Z,4.93
2023-04-09T16:01:49.865Z,4.53
2023-04-09T16:03:22.864Z,4.43
2023-04-09T16:04:57.133Z,4.65
2023-04-09T16:06:30.114Z,4.43
2023-04-09T16:08:03.549Z,4.80
2023-04-09T16:09:36.476Z,4.85
2023-04-09T16:11:09.550Z,5.15
2023-04-09T16:12:42.415Z,4.95
2023-04-09T16:14:15.567Z,5.07
2023-04-09T16:15:49.352Z,4.68
2023-04-09T16:17:22.371Z,4.43
2023-04-09T16:18:55.405Z,4.50
2023-04-09T16:22:02.707Z,5.18
2023-04-09T16:23:35.648Z,4.65
2023-04-09T16:25:09.333Z,4.80
2023-04-09T16:26:43.158Z,4.85
2023-04-09T16:28:16.518Z,5.05
2023-04-09T16:31:22.374Z,4.68
2023-04-09T16:32:55.396Z,5.30
2023-04-09T16:34:28.453Z,4.88
2023-04-09T16:36:02.936Z,5.28
2023-04-09T16:37:36.286Z,5.40
2023-04-09T16:40:42.006Z,4.85
2023-04-09T16:42:14.884Z,5.15
2023-04-09T16:43:50.158Z,5.20
2023-04-09T16:45:23.567Z,5.35
2023-04-09T16:46:56.860Z,5.13
2023-04-09T16:50:02.945Z,4.72
2023-04-09T16:53:11.101Z,4.90
2023-04-09T16:54:44.097Z,5.10
2023-04-09T16:56:17.002Z,5.03
2023-04-09T16:57:49.904Z,5.10
2023-04-09T16:59:22.828Z,4.93
2023-04-09T17:00:56.336Z,4.97
2023-04-09T17:02:29.331Z,5.10
2023-04-09T17:04:03.112Z,5.10
2023-04-09T17:05:36.168Z,5.07
2023-04-09T17:07:10.599Z,4.68
2023-04-09T17:08:43.470Z,4.60
2023-04-09T17:10:16.331Z,4.72
2023-04-09T17:11:49.317Z,4.82
2023-04-09T17:13:22.283Z,4.85
2023-04-09T17:14:55.697Z,4.72
2023-04-09T17:16:28.805Z,5.63
2023-04-09T17:18:02.287Z,4.63
2023-04-09T17:19:35.299Z,5.35
2023-04-09T17:21:08.267Z,5.05
2023-04-09T17:22:42.592Z,5.03
2023-04-09T17:24:15.579Z,4.20
2023-04-09T17:25:48.616Z,4.82
2023-04-09T17:27:21.735Z,4.93
2023-04-09T17:28:54.851Z,5.20
2023-04-09T17:32:00.984Z,4.75
2023-04-09T17:33:33.866Z,5.38
2023-04-09T17:35:07.546Z,5.38
2023-04-09T17:36:41.364Z,5.43
2023-04-09T17:38:21.003Z,4.82
2023-04-09T17:39:53.886Z,4.70
2023-04-09T17:41:27.673Z,5.18
2023-04-09T17:43:01.027Z,5.00
2023-04-09T17:46:08.779Z,5.55
2023-04-09T17:49:14.937Z,5.03
2023-04-09T17:50:48.314Z,5.78
2023-04-09T17:53:56.062Z,5.20
2023-04-09T17:55:29.014Z,5.80
2023-04-09T17:57:04.041Z,5.75
2023-04-09T17:58:36.892Z,5.35
2023-04-09T18:00:11.095Z,5.85
2023-04-09T18:01:44.163Z,5.15
2023-04-09T18:03:17.934Z,5.57
2023-04-09T18:04:51.399Z,5.40
2023-04-09T18:06:24.321Z,5.00
2023-04-09T18:07:59.563Z,6.00
2023-04-09T18:09:34.410Z,5.32
2023-04-09T18:11:12.292Z,5.50
2023-04-09T18:12:46.365Z,5.35
2023-04-09T18:14:19.203Z,5.55
2023-04-09T18:15:52.167Z,5.60
2023-04-09T18:17:26.273Z,5.65
2023-04-09T18:18:59.618Z,5.97
2023-04-09T18:20:32.637Z,5.55
2023-04-09T18:22:05.508Z,5.50
2023-04-09T18:23:40.081Z,5.63
2023-04-09T18:25:14.594Z,5.85
2023-04-09T18:26:47.495Z,5.40
2023-04-09T18:28:20.602Z,5.18
2023-04-09T18:29:53.528Z,6.18
2023-04-09T18:31:27.242Z,5.50
2023-04-09T18:33:00.509Z,5.55
2023-04-09T18:34:33.467Z,5.68
2023-04-09T18:36:06.853Z,5.85
2023-04-09T18:39:12.434Z,6.45
2023-04-09T18:40:46.716Z,6.47
2023-04-09T18:42:19.610Z,6.25
2023-04-09T18:43:52.719Z,5.75
2023-04-09T18:45:25.962Z,5.80
2023-04-09T18:46:59.683Z,5.63
2023-04-09T18:48:32.893Z,5.60
2023-04-09T18:50:06.550Z,6.03
2023-04-09T18:51:39.516Z,6.03
2023-04-09T18:53:14.581Z,6.00
2023-04-09T18:54:48.257Z,5.63
2023-04-09T18:56:22.866Z,5.82
2023-04-09T18:57:55.743Z,5.93
2023-04-09T18:59:28.825Z,5.68
2023-04-09T19:01:01.880Z,6.05
2023-04-09T19:02:34.946Z,5.85
2023-04-09T19:04:08.041Z,5.75
2023-04-09T19:05:41.025Z,6.43
2023-04-09T19:07:14.107Z,6.40
2023-04-09T19:08:47.626Z,6.07
2023-04-09T19:10:20.858Z,5.50
2023-04-09T19:11:55.162Z,5.82
2023-04-09T19:13:28.043Z,5.68
2023-04-09T19:15:02.205Z,5.70
2023-04-09T19:16:35.457Z,5.70
2023-04-09T19:18:08.503Z,6.38
2023-04-09T19:19:41.686Z,6.20
2023-04-09T19:21:15.018Z,6.13
2023-04-09T19:24:21.319Z,6.50
2023-04-09T19:25:55.289Z,6.00
2023-04-09T19:27:29.803Z,6.60
2023-04-09T19:29:03.630Z,6.30
2023-04-09T19:30:36.579Z,6.18
2023-04-09T19:32:12.704Z,5.97
2023-04-09T19:33:45.688Z,6.30
2023-04-09T19:35:18.712Z,6.18
2023-04-09T19:36:51.638Z,6.20
2023-04-09T19:38:24.671Z,6.90
2023-04-09T19:40:01.138Z,6.95
2023-04-09T19:41:34.228Z,6.85
2023-04-09T19:43:08.524Z,7.15
2023-04-09T19:44:41.486Z,7.80
2023-04-09T19:46:14.439Z,7.30
2023-04-09T19:47:47.421Z,6.25
2023-04-09T19:49:20.427Z,6.78
2023-04-09T19:50:53.447Z,6.53
2023-04-09T19:52:26.987Z,6.75
2023-04-09T19:53:59.882Z,6.82
2023-04-09T19:55:32.842Z,6.65
2023-04-09T19:57:05.735Z,7.00
2023-04-09T19:58:40.136Z,6.82
2023-04-09T20:00:14.461Z,6.00
2023-04-09T20:01:48.509Z,6.13
2023-04-09T20:03:21.546Z,5.80
2023-04-09T20:04:54.571Z,5.80
2023-04-09T20:06:28.882Z,5.70
2023-04-09T20:08:01.846Z,6.63
2023-04-09T20:09:41.208Z,6.63
2023-04-09T20:11:17.657Z,5.88
2023-04-09T20:12:51.218Z,6.00
2023-04-09T20:14:25.542Z,6.43
2023-04-09T20:15:58.627Z,6.35
2023-04-09T20:17:31.974Z,6.75
2023-04-09T20:19:04.890Z,6.80
2023-04-09T20:20:37.828Z,6.20
2023-04-09T20:22:10.921Z,5.97
2023-04-09T20:23:45.236Z,6.30
2023-04-09T20:25:18.246Z,6.00
2023-04-09T20:26:51.190Z,6.18
2023-04-09T20:28:24.158Z,5.85
2023-04-09T20:29:58.578Z,6.18
2023-04-09T20:31:34.882Z,6.30
2023-04-09T20:33:07.851Z,6.65
2023-04-09T20:34:40.960Z,6.68
2023-04-09T20:36:18.132Z,6.60
2023-04-09T20:37:51.286Z,6.65
2023-04-09T20:39:26.503Z,7.05
2023-04-09T20:40:59.427Z,7.05
2023-04-09T20:42:32.452Z,6.88
2023-04-09T20:44:05.879Z,6.95
2023-04-09T20:47:16.323Z,7.18
2023-04-09T20:48:49.433Z,7.20
2023-04-09T20:50:22.407Z,8.48
2023-04-09T20:51:55.690Z,7.53
2023-04-09T20:53:28.629Z,7.70
2023-04-09T20:55:01.691Z,7.65
2023-04-09T20:56:34.629Z,7.85
2023-04-09T20:58:07.599Z,7.75
2023-04-09T20:59:40.669Z,7.32
2023-04-09T21:01:15.733Z,7.65
2023-04-09T21:02:49.140Z,8.07
2023-04-09T21:04:22.246Z,7.57
2023-04-09T21:05:55.530Z,7.65
2023-04-09T21:07:28.496Z,8.23
2023-04-09T21:09:01.406Z,8.50
2023-04-09T21:10:34.243Z,8.40
2023-04-09T21:12:07.251Z,8.30
2023-04-09T21:13:53.146Z,8.35
2023-04-09T21:15:27.715Z,8.82
2023-04-09T21:17:02.054Z,8.82
2023-04-09T21:18:35.029Z,9.20
2023-04-09T21:20:08.879Z,8.65
2023-04-09T21:21:41.773Z,8.07
2023-04-09T21:23:14.869Z,8.13
2023-04-09T21:24:47.806Z,7.82
2023-04-09T21:26:20.836Z,7.80
2023-04-09T21:27:53.693Z,8.07
2023-04-09T21:29:27.364Z,7.88
2023-04-09T21:31:00.483Z,8.10
2023-04-09T21:32:34.915Z,8.55
2023-04-09T21:34:07.810Z,7.70
2023-04-09T21:35:40.894Z,8.82
2023-04-09T21:37:13.852Z,8.88
2023-04-09T21:38:46.760Z,8.23
2023-04-09T21:40:19.682Z,9.25
2023-04-09T21:41:52.559Z,9.25
2023-04-09T21:43:26.893Z,9.18
2023-04-09T21:45:01.295Z,8.77
2023-04-09T21:46:34.540Z,8.95
2023-04-09T21:49:43.092Z,9.18
2023-04-09T21:51:16.065Z,8.82
2023-04-09T21:52:49.202Z,8.52
2023-04-09T21:54:22.207Z,8.00
2023-04-09T21:55:55.262Z,8.88
2023-04-09T21:57:28.164Z,8.52
2023-04-09T21:59:01.903Z,9.63